Skip Navigation LinksHome page > Weather > Current weather Skip Navigation Links

Current Weather

Fua'Amotu, Tonga

For information only: do not use for flight planning or navigation.
Latest weather
Observation time Sunday, July 21, 2019 5:00 AM TOT
Local time Sunday, July 21, 2019 5:11 AM TOT
Flight conditions Visual Meteorological Conditions
Winds
Wind direction North (360°)
Wind speed 15 mph
Wind gusting to 26 mph
Visibility 6.2 mi.
Sky condition
Ceiling 4,000 ft. broken clouds
Cloud layer few clouds 800 ft.
Cloud layer broken clouds 4,000 ft.
Temperature 77°F
Dewpoint 75°F
Altimeter 29.74 in.Hg
Derived measurements
Relative humidity 94%
Heat index 77°F
Density altitude 1808 ft.
METAR NFTF 201600Z 36013G23KT 9999 FEW008 BKN040 25/24 Q1007

Settings

Location code

InnerDrive.Weather 4.0.6770.0 Release CLR 4.0.30319.42000
Copyright ©2018 Inner Drive Technology. All rights reserved. Portions Copyright ©1986-2018 David Braverman.

Find weather

Site navigation


Skip Navigation Links

Place info

Page info

PayPal - The safer, easier way to pay online!

Return home.

Copyright ©2019 Inner Drive Technology. Purveyors of fine, hand-crafted computer software. Page printed 2019-07-20T16:11:53 UTC.